LSZL

Details ICAO LSZL (ZJI)
Name Locarno
Region Switzerland
Timezone Europe/Zurich (UTC+2.0)
Plans Departing 77
Arriving 76
Stats Elevation 649 ft / 198 m (AMSL)
Location 46.161700° 8.878540°
Runways 3
Magnetic Variation 2.586° E
Sunrise 2019-05-19 03:49:18 UTC / 2019-05-19 05:49:18 Local
Sunset 2019-05-19 18:55:25 UTC / 2019-05-19 20:55:25 Local
Advertisement - Login to hide

Runways

ID Width Length Bearing (true/mag) Surface Threshold Overrun Markings Lighting
08C 98 ft / 30 m 2,284 ft / 696 m 79.42° / 76.83° GRASS 0 ft / 0 m 52 ft / 16 m NONE
08L 75 ft / 23 m 2,622 ft / 799 m 79.08° / 76.49° ASPHALT 417 ft / 127 m 0 ft / 0 m APP EDGE THRESHOLD
08R 98 ft / 30 m 1,997 ft / 609 m 79.64° / 77.05° GRASS 0 ft / 0 m 0 ft / 0 m NONE
26C 98 ft / 30 m 2,284 ft / 696 m 259.43° / 256.84° GRASS 0 ft / 0 m 0 ft / 0 m NONE
26L 98 ft / 30 m 1,997 ft / 609 m 259.64° / 257.06° GRASS 0 ft / 0 m 295 ft / 90 m NONE
26R 75 ft / 23 m 2,622 ft / 799 m 259.08° / 256.50° ASPHALT 164 ft / 50 m 0 ft / 0 m APP EDGE THRESHOLD

Map

Weather


0- 5 10 15 20 25 30 35+ Temperature / °C

Clouds and Precipitation
Forecast for 2019-05-19 06:00 UTC. Updated 3 hours ago

Ground ~20,000 ft ~40,000 ft Winds

METAR

LSZL 190550Z AUTO VRB01KT 9999NDV FEW100 SCT120 11/11 Q1004 RMK

TAF

Not found

Frequencies

Ground 121.70 MHz
Tower 134.82 MHz
Recorded 133.45 MHz ATIS
Warning: Do not use this data for real-world aviation or navigation. No guarantee of current accuracy is given.